Terminal Aerodrome Forecast
Issued by NWS

Home | Current Version | Previous Version | Text Only | Print | Product List | Glossary On
Versions: 1 2 3 4 5 6 7 8 9 10 11 12 13 14 15 16 17 18 19 20 21 22 23 24 25 26 27 28 29 30 31 32
000
FTUS44 KLZK 222339
TAFADF
TAF
KADF 222339Z 2300/2324 VRB02KT P6SM BKN023
     FM230200 00000KT P6SM SKC
     FM230800 00000KT 3SM BR SKC
      TEMPO 2310/2314 1SM BR BKN006
     FM231500 16006KT P6SM FEW250
     FM231800 18010G16KT P6SM SKC
      AMD NOT SKED=

USA.gov is the U.S. government's official web portal to all federal, state and local government web resources and services.